sensor_id;sensor_type;location;lat;lon;timestamp;temperature;humidity
7384;DHT22;3733;47.994;8.820;2023-10-08T00:01:15;10.10;99.90
7384;DHT22;3733;47.994;8.820;2023-10-08T00:03:42;10.10;99.90
7384;DHT22;3733;47.994;8.820;2023-10-08T00:06:14;10.10;99.90
7384;DHT22;3733;47.994;8.820;2023-10-08T00:08:40;10.10;99.90
7384;DHT22;3733;47.994;8.820;2023-10-08T00:11:06;10.00;99.90
7384;DHT22;3733;47.994;8.820;2023-10-08T00:13:33;10.00;99.90
7384;DHT22;3733;47.994;8.820;2023-10-08T00:16:13;10.00;99.90
7384;DHT22;3733;47.994;8.820;2023-10-08T00:18:43;10.00;99.90
7384;DHT22;3733;47.994;8.820;2023-10-08T00:21:15;10.00;99.90
7384;DHT22;3733;47.994;8.820;2023-10-08T00:23:40;9.90;99.90
7384;DHT22;3733;47.994;8.820;2023-10-08T00:26:21;9.90;99.90
7384;DHT22;3733;47.994;8.820;2023-10-08T00:28:57;9.90;99.90
7384;DHT22;3733;47.994;8.820;2023-10-08T00:31:25;9.90;99.90
7384;DHT22;3733;47.994;8.820;2023-10-08T00:34:02;9.80;99.90
7384;DHT22;3733;47.994;8.820;2023-10-08T00:36:30;9.80;99.90
7384;DHT22;3733;47.994;8.820;2023-10-08T00:38:56;9.80;99.90
7384;DHT22;3733;47.994;8.820;2023-10-08T00:41:26;9.70;99.90
7384;DHT22;3733;47.994;8.820;2023-10-08T00:43:56;9.70;99.90
7384;DHT22;3733;47.994;8.820;2023-10-08T00:46:25;9.70;99.90
7384;DHT22;3733;47.994;8.820;2023-10-08T00:48:52;9.60;99.90
7384;DHT22;3733;47.994;8.820;2023-10-08T00:51:25;9.60;99.90
7384;DHT22;3733;47.994;8.820;2023-10-08T00:53:56;9.60;99.90
7384;DHT22;3733;47.994;8.820;2023-10-08T00:56:32;9.60;99.90
7384;DHT22;3733;47.994;8.820;2023-10-08T00:59:17;9.60;99.90
7384;DHT22;3733;47.994;8.820;2023-10-08T01:01:46;9.50;99.90
7384;DHT22;3733;47.994;8.820;2023-10-08T01:04:20;9.50;99.90
7384;DHT22;3733;47.994;8.820;2023-10-08T01:06:53;9.50;99.90
7384;DHT22;3733;47.994;8.820;2023-10-08T01:09:21;9.50;99.90
7384;DHT22;3733;47.994;8.820;2023-10-08T01:14:42;9.50;99.90
7384;DHT22;3733;47.994;8.820;2023-10-08T01:17:11;9.50;99.90
7384;DHT22;3733;47.994;8.820;2023-10-08T01:19:45;9.50;99.90
7384;DHT22;3733;47.994;8.820;2023-10-08T01:22:20;9.40;99.90
7384;DHT22;3733;47.994;8.820;2023-10-08T01:24:51;9.40;99.90
7384;DHT22;3733;47.994;8.820;2023-10-08T01:27:19;9.30;99.90
7384;DHT22;3733;47.994;8.820;2023-10-08T01:29:52;9.40;99.90
7384;DHT22;3733;47.994;8.820;2023-10-08T01:32:19;9.30;99.90
7384;DHT22;3733;47.994;8.820;2023-10-08T01:34:46;9.30;99.90
7384;DHT22;3733;47.994;8.820;2023-10-08T01:37:16;9.30;99.90
7384;DHT22;3733;47.994;8.820;2023-10-08T01:39:45;9.30;99.90
7384;DHT22;3733;47.994;8.820;2023-10-08T01:42:12;9.20;99.90
7384;DHT22;3733;47.994;8.820;2023-10-08T01:44:46;9.20;99.90
7384;DHT22;3733;47.994;8.820;2023-10-08T01:47:13;9.20;99.90
7384;DHT22;3733;47.994;8.820;2023-10-08T01:49:41;9.20;99.90
7384;DHT22;3733;47.994;8.820;2023-10-08T01:52:09;9.20;99.90
7384;DHT22;3733;47.994;8.820;2023-10-08T01:54:43;9.10;99.90
7384;DHT22;3733;47.994;8.820;2023-10-08T01:57:09;9.10;99.90
7384;DHT22;3733;47.994;8.820;2023-10-08T01:59:35;9.10;99.90
7384;DHT22;3733;47.994;8.820;2023-10-08T02:02:03;9.10;99.90
7384;DHT22;3733;47.994;8.820;2023-10-08T02:04:33;9.10;99.90
7384;DHT22;3733;47.994;8.820;2023-10-08T02:07:03;9.00;99.90
7384;DHT22;3733;47.994;8.820;2023-10-08T02:09:38;9.00;99.90
7384;DHT22;3733;47.994;8.820;2023-10-08T02:12:04;9.00;99.90
7384;DHT22;3733;47.994;8.820;2023-10-08T02:14:30;9.00;99.90
7384;DHT22;3733;47.994;8.820;2023-10-08T02:17:01;9.00;99.90
7384;DHT22;3733;47.994;8.820;2023-10-08T02:19:32;9.00;99.90
7384;DHT22;3733;47.994;8.820;2023-10-08T02:21:58;8.90;99.90
7384;DHT22;3733;47.994;8.820;2023-10-08T02:24:24;8.90;99.90
7384;DHT22;3733;47.994;8.820;2023-10-08T02:26:54;8.90;99.90
7384;DHT22;3733;47.994;8.820;2023-10-08T02:29:23;8.90;99.90
7384;DHT22;3733;47.994;8.820;2023-10-08T02:31:50;8.90;99.90
7384;DHT22;3733;47.994;8.820;2023-10-08T02:34:15;8.90;99.90
7384;DHT22;3733;47.994;8.820;2023-10-08T02:36:41;8.80;99.90
7384;DHT22;3733;47.994;8.820;2023-10-08T02:39:08;8.80;99.90
7384;DHT22;3733;47.994;8.820;2023-10-08T02:41:42;8.80;99.90
7384;DHT22;3733;47.994;8.820;2023-10-08T02:44:11;8.80;99.90
7384;DHT22;3733;47.994;8.820;2023-10-08T02:46:45;8.80;99.90
7384;DHT22;3733;47.994;8.820;2023-10-08T02:49:16;8.70;99.90
7384;DHT22;3733;47.994;8.820;2023-10-08T02:51:46;8.70;99.90
7384;DHT22;3733;47.994;8.820;2023-10-08T02:54:13;8.70;99.90
7384;DHT22;3733;47.994;8.820;2023-10-08T02:56:49;8.70;99.90
7384;DHT22;3733;47.994;8.820;2023-10-08T02:59:21;8.70;99.90
7384;DHT22;3733;47.994;8.820;2023-10-08T03:01:47;8.70;99.90
7384;DHT22;3733;47.994;8.820;2023-10-08T03:04:15;8.70;99.90
7384;DHT22;3733;47.994;8.820;2023-10-08T03:06:47;8.70;99.90
7384;DHT22;3733;47.994;8.820;2023-10-08T03:09:20;8.70;99.90
7384;DHT22;3733;47.994;8.820;2023-10-08T03:11:49;8.70;99.90
7384;DHT22;3733;47.994;8.820;2023-10-08T03:14:16;8.60;99.90
7384;DHT22;3733;47.994;8.820;2023-10-08T03:16:51;8.60;99.90
7384;DHT22;3733;47.994;8.820;2023-10-08T03:19:18;8.60;99.90
7384;DHT22;3733;47.994;8.820;2023-10-08T03:21:48;8.60;99.90
7384;DHT22;3733;47.994;8.820;2023-10-08T03:24:19;8.60;99.90
7384;DHT22;3733;47.994;8.820;2023-10-08T03:27:00;8.60;99.90
7384;DHT22;3733;47.994;8.820;2023-10-08T03:29:33;8.60;99.90
7384;DHT22;3733;47.994;8.820;2023-10-08T03:32:06;8.60;99.90
7384;DHT22;3733;47.994;8.820;2023-10-08T03:34:31;8.60;99.90
7384;DHT22;3733;47.994;8.820;2023-10-08T03:36:59;8.60;99.90
7384;DHT22;3733;47.994;8.820;2023-10-08T03:39:31;8.50;99.90
7384;DHT22;3733;47.994;8.820;2023-10-08T03:42:23;8.50;99.90
7384;DHT22;3733;47.994;8.820;2023-10-08T03:44:50;8.50;99.90
7384;DHT22;3733;47.994;8.820;2023-10-08T03:47:24;8.50;99.90
7384;DHT22;3733;47.994;8.820;2023-10-08T03:49:52;8.50;99.90
7384;DHT22;3733;47.994;8.820;2023-10-08T03:52:19;8.50;99.90
7384;DHT22;3733;47.994;8.820;2023-10-08T03:54:51;8.50;99.90
7384;DHT22;3733;47.994;8.820;2023-10-08T03:57:36;8.50;99.90
7384;DHT22;3733;47.994;8.820;2023-10-08T04:00:09;8.40;99.90
7384;DHT22;3733;47.994;8.820;2023-10-08T04:02:39;8.40;99.90
7384;DHT22;3733;47.994;8.820;2023-10-08T04:05:06;8.40;99.90
7384;DHT22;3733;47.994;8.820;2023-10-08T04:07:45;8.40;99.90
7384;DHT22;3733;47.994;8.820;2023-10-08T04:10:30;8.40;99.90
7384;DHT22;3733;47.994;8.820;2023-10-08T04:13:07;8.40;99.90
7384;DHT22;3733;47.994;8.820;2023-10-08T04:15:41;8.40;99.90
7384;DHT22;3733;47.994;8.820;2023-10-08T04:18:08;8.40;99.90
7384;DHT22;3733;47.994;8.820;2023-10-08T04:20:34;8.40;99.90
7384;DHT22;3733;47.994;8.820;2023-10-08T04:23:08;8.40;99.90
7384;DHT22;3733;47.994;8.820;2023-10-08T04:25:46;8.30;99.90
7384;DHT22;3733;47.994;8.820;2023-10-08T04:28:19;8.30;99.90
7384;DHT22;3733;47.994;8.820;2023-10-08T04:30:49;8.30;99.90
7384;DHT22;3733;47.994;8.820;2023-10-08T04:33:16;8.40;99.90
7384;DHT22;3733;47.994;8.820;2023-10-08T04:35:44;8.30;99.90
7384;DHT22;3733;47.994;8.820;2023-10-08T04:38:22;8.30;99.90
7384;DHT22;3733;47.994;8.820;2023-10-08T04:40:49;8.30;99.90
7384;DHT22;3733;47.994;8.820;2023-10-08T04:43:21;8.30;99.90
7384;DHT22;3733;47.994;8.820;2023-10-08T04:45:51;8.30;99.90
7384;DHT22;3733;47.994;8.820;2023-10-08T04:48:16;8.30;99.90
7384;DHT22;3733;47.994;8.820;2023-10-08T04:50:48;8.20;99.90
7384;DHT22;3733;47.994;8.820;2023-10-08T04:53:33;8.20;99.90
7384;DHT22;3733;47.994;8.820;2023-10-08T04:56:06;8.20;99.90
7384;DHT22;3733;47.994;8.820;2023-10-08T04:58:35;8.20;99.90
7384;DHT22;3733;47.994;8.820;2023-10-08T05:01:03;8.20;99.90
7384;DHT22;3733;47.994;8.820;2023-10-08T05:03:44;8.20;99.90
7384;DHT22;3733;47.994;8.820;2023-10-08T05:06:31;8.20;99.90
7384;DHT22;3733;47.994;8.820;2023-10-08T05:09:10;8.20;99.90
7384;DHT22;3733;47.994;8.820;2023-10-08T05:11:46;8.20;99.90
7384;DHT22;3733;47.994;8.820;2023-10-08T05:14:32;8.20;99.90
7384;DHT22;3733;47.994;8.820;2023-10-08T05:17:07;8.20;99.90
7384;DHT22;3733;47.994;8.820;2023-10-08T05:19:40;8.20;99.90
7384;DHT22;3733;47.994;8.820;2023-10-08T05:22:07;8.20;99.90
7384;DHT22;3733;47.994;8.820;2023-10-08T05:24:46;8.10;99.90
7384;DHT22;3733;47.994;8.820;2023-10-08T05:27:31;8.10;99.90
7384;DHT22;3733;47.994;8.820;2023-10-08T05:30:06;8.10;99.90
7384;DHT22;3733;47.994;8.820;2023-10-08T05:32:43;8.10;99.90
7384;DHT22;3733;47.994;8.820;2023-10-08T05:35:28;8.10;99.90
7384;DHT22;3733;47.994;8.820;2023-10-08T05:38:18;8.00;99.90
7384;DHT22;3733;47.994;8.820;2023-10-08T05:41:07;8.00;99.90
7384;DHT22;3733;47.994;8.820;2023-10-08T05:43:53;8.00;99.90
7384;DHT22;3733;47.994;8.820;2023-10-08T05:46:40;8.00;99.90
7384;DHT22;3733;47.994;8.820;2023-10-08T05:49:14;8.00;99.90
7384;DHT22;3733;47.994;8.820;2023-10-08T05:51:42;8.00;99.90
7384;DHT22;3733;47.994;8.820;2023-10-08T05:54:31;8.00;99.90
7384;DHT22;3733;47.994;8.820;2023-10-08T05:57:02;8.00;99.90
7384;DHT22;3733;47.994;8.820;2023-10-08T05:59:40;8.00;99.90
7384;DHT22;3733;47.994;8.820;2023-10-08T06:02:31;8.00;99.90
7384;DHT22;3733;47.994;8.820;2023-10-08T06:05:05;8.00;99.90
7384;DHT22;3733;47.994;8.820;2023-10-08T06:10:30;8.00;99.90
7384;DHT22;3733;47.994;8.820;2023-10-08T06:13:03;8.00;99.90
7384;DHT22;3733;47.994;8.820;2023-10-08T06:15:48;8.10;99.90
7384;DHT22;3733;47.994;8.820;2023-10-08T06:18:30;8.10;99.90
7384;DHT22;3733;47.994;8.820;2023-10-08T06:21:00;8.10;99.90
7384;DHT22;3733;47.994;8.820;2023-10-08T06:23:27;8.10;99.90
7384;DHT22;3733;47.994;8.820;2023-10-08T06:25:55;8.10;99.90
7384;DHT22;3733;47.994;8.820;2023-10-08T06:28:25;8.20;99.90
7384;DHT22;3733;47.994;8.820;2023-10-08T06:30:53;8.20;99.90
7384;DHT22;3733;47.994;8.820;2023-10-08T06:33:20;8.30;99.90
7384;DHT22;3733;47.994;8.820;2023-10-08T06:35:46;8.30;99.90
7384;DHT22;3733;47.994;8.820;2023-10-08T06:38:48;8.30;99.90
7384;DHT22;3733;47.994;8.820;2023-10-08T06:41:14;8.40;99.90
7384;DHT22;3733;47.994;8.820;2023-10-08T06:43:42;8.50;99.90
7384;DHT22;3733;47.994;8.820;2023-10-08T06:46:31;8.60;99.90
7384;DHT22;3733;47.994;8.820;2023-10-08T06:51:26;8.70;99.90
7384;DHT22;3733;47.994;8.820;2023-10-08T06:53:52;8.80;99.90
7384;DHT22;3733;47.994;8.820;2023-10-08T06:56:19;8.80;99.90
7384;DHT22;3733;47.994;8.820;2023-10-08T06:58:46;8.90;99.90
7384;DHT22;3733;47.994;8.820;2023-10-08T07:01:16;8.90;99.90
7384;DHT22;3733;47.994;8.820;2023-10-08T07:03:56;9.00;99.90
7384;DHT22;3733;47.994;8.820;2023-10-08T07:06:29;9.10;99.90
7384;DHT22;3733;47.994;8.820;2023-10-08T07:09:00;9.10;99.90
7384;DHT22;3733;47.994;8.820;2023-10-08T07:11:30;9.20;99.90
7384;DHT22;3733;47.994;8.820;2023-10-08T07:14:03;9.20;99.90
7384;DHT22;3733;47.994;8.820;2023-10-08T07:16:30;9.30;99.90
7384;DHT22;3733;47.994;8.820;2023-10-08T07:18:56;9.30;99.90
7384;DHT22;3733;47.994;8.820;2023-10-08T07:21:28;9.40;99.90
7384;DHT22;3733;47.994;8.820;2023-10-08T07:23:55;9.40;99.90
7384;DHT22;3733;47.994;8.820;2023-10-08T07:26:28;9.50;99.90
7384;DHT22;3733;47.994;8.820;2023-10-08T07:29:04;9.60;99.90
7384;DHT22;3733;47.994;8.820;2023-10-08T07:31:34;9.70;99.90
7384;DHT22;3733;47.994;8.820;2023-10-08T07:34:02;9.80;99.90
7384;DHT22;3733;47.994;8.820;2023-10-08T07:36:47;9.80;99.90
7384;DHT22;3733;47.994;8.820;2023-10-08T07:39:14;10.00;99.90
7384;DHT22;3733;47.994;8.820;2023-10-08T07:42:00;10.00;99.90
7384;DHT22;3733;47.994;8.820;2023-10-08T07:44:27;10.10;99.90
7384;DHT22;3733;47.994;8.820;2023-10-08T07:46:55;10.20;99.90
7384;DHT22;3733;47.994;8.820;2023-10-08T07:49:21;10.30;99.90
7384;DHT22;3733;47.994;8.820;2023-10-08T07:51:49;10.40;99.90
7384;DHT22;3733;47.994;8.820;2023-10-08T07:54:24;10.50;99.90
7384;DHT22;3733;47.994;8.820;2023-10-08T07:56:50;10.60;99.90
7384;DHT22;3733;47.994;8.820;2023-10-08T08:02:07;10.80;99.90
7384;DHT22;3733;47.994;8.820;2023-10-08T08:04:44;11.00;99.90
7384;DHT22;3733;47.994;8.820;2023-10-08T08:07:11;11.00;99.90
7384;DHT22;3733;47.994;8.820;2023-10-08T08:09:46;11.10;99.90
7384;DHT22;3733;47.994;8.820;2023-10-08T08:12:21;11.20;99.90
7384;DHT22;3733;47.994;8.820;2023-10-08T08:14:47;11.30;99.90
7384;DHT22;3733;47.994;8.820;2023-10-08T08:17:14;11.40;99.90
7384;DHT22;3733;47.994;8.820;2023-10-08T08:22:07;11.60;99.90
7384;DHT22;3733;47.994;8.820;2023-10-08T08:24:32;11.80;99.90
7384;DHT22;3733;47.994;8.820;2023-10-08T08:27:01;11.90;99.90
7384;DHT22;3733;47.994;8.820;2023-10-08T08:29:35;12.00;99.90
7384;DHT22;3733;47.994;8.820;2023-10-08T08:32:10;12.10;99.90
7384;DHT22;3733;47.994;8.820;2023-10-08T08:34:44;12.30;99.40
7384;DHT22;3733;47.994;8.820;2023-10-08T08:37:12;12.40;97.70
7384;DHT22;3733;47.994;8.820;2023-10-08T08:39:39;12.50;95.90
7384;DHT22;3733;47.994;8.820;2023-10-08T08:42:06;12.60;94.60
7384;DHT22;3733;47.994;8.820;2023-10-08T08:44:36;12.80;93.50
7384;DHT22;3733;47.994;8.820;2023-10-08T08:47:12;12.90;92.70
7384;DHT22;3733;47.994;8.820;2023-10-08T08:49:45;13.00;91.60
7384;DHT22;3733;47.994;8.820;2023-10-08T08:52:12;13.20;88.80
7384;DHT22;3733;47.994;8.820;2023-10-08T08:54:38;13.30;83.80
7384;DHT22;3733;47.994;8.820;2023-10-08T08:57:04;13.40;82.60
7384;DHT22;3733;47.994;8.820;2023-10-08T08:59:32;13.50;81.50
7384;DHT22;3733;47.994;8.820;2023-10-08T09:02:02;13.70;79.70
7384;DHT22;3733;47.994;8.820;2023-10-08T09:04:32;13.80;79.10
7384;DHT22;3733;47.994;8.820;2023-10-08T09:07:01;13.90;79.60
7384;DHT22;3733;47.994;8.820;2023-10-08T09:09:34;14.10;80.60
7384;DHT22;3733;47.994;8.820;2023-10-08T09:12:01;14.30;80.20
7384;DHT22;3733;47.994;8.820;2023-10-08T09:14:28;14.50;80.00
7384;DHT22;3733;47.994;8.820;2023-10-08T09:17:00;14.60;78.30
7384;DHT22;3733;47.994;8.820;2023-10-08T09:19:26;14.80;75.70
7384;DHT22;3733;47.994;8.820;2023-10-08T09:22:08;15.00;73.60
7384;DHT22;3733;47.994;8.820;2023-10-08T09:24:35;15.20;72.70
7384;DHT22;3733;47.994;8.820;2023-10-08T09:27:08;15.40;73.10
7384;DHT22;3733;47.994;8.820;2023-10-08T09:29:34;15.60;72.10
7384;DHT22;3733;47.994;8.820;2023-10-08T09:32:09;15.90;70.90
7384;DHT22;3733;47.994;8.820;2023-10-08T09:34:36;16.10;70.40
7384;DHT22;3733;47.994;8.820;2023-10-08T09:37:02;16.40;69.50
7384;DHT22;3733;47.994;8.820;2023-10-08T09:39:29;16.60;69.20
7384;DHT22;3733;47.994;8.820;2023-10-08T09:42:00;16.90;67.70
7384;DHT22;3733;47.994;8.820;2023-10-08T09:44:28;17.10;66.40
7384;DHT22;3733;47.994;8.820;2023-10-08T09:47:02;17.40;65.40
7384;DHT22;3733;47.994;8.820;2023-10-08T09:49:46;17.60;64.60
7384;DHT22;3733;47.994;8.820;2023-10-08T09:52:18;17.80;63.90
7384;DHT22;3733;47.994;8.820;2023-10-08T09:54:50;18.00;63.80
7384;DHT22;3733;47.994;8.820;2023-10-08T09:57:18;18.20;63.60
7384;DHT22;3733;47.994;8.820;2023-10-08T09:59:45;18.50;58.40
7384;DHT22;3733;47.994;8.820;2023-10-08T10:02:12;18.70;57.00
7384;DHT22;3733;47.994;8.820;2023-10-08T10:04:43;18.90;56.50
7384;DHT22;3733;47.994;8.820;2023-10-08T10:07:10;19.20;55.50
7384;DHT22;3733;47.994;8.820;2023-10-08T10:09:38;19.50;55.10
7384;DHT22;3733;47.994;8.820;2023-10-08T10:12:05;19.80;54.00
7384;DHT22;3733;47.994;8.820;2023-10-08T10:14:42;20.00;53.20
7384;DHT22;3733;47.994;8.820;2023-10-08T10:17:17;20.30;52.40
7384;DHT22;3733;47.994;8.820;2023-10-08T10:19:50;20.50;51.90
7384;DHT22;3733;47.994;8.820;2023-10-08T10:22:30;20.70;52.70
7384;DHT22;3733;47.994;8.820;2023-10-08T10:24:57;20.70;52.00
7384;DHT22;3733;47.994;8.820;2023-10-08T10:27:23;20.70;53.20
7384;DHT22;3733;47.994;8.820;2023-10-08T10:29:49;20.80;54.80
7384;DHT22;3733;47.994;8.820;2023-10-08T10:32:15;20.80;55.20
7384;DHT22;3733;47.994;8.820;2023-10-08T10:34:45;20.80;55.20
7384;DHT22;3733;47.994;8.820;2023-10-08T10:37:13;20.70;56.20
7384;DHT22;3733;47.994;8.820;2023-10-08T10:39:55;20.60;56.30
7384;DHT22;3733;47.994;8.820;2023-10-08T10:42:24;20.50;57.00
7384;DHT22;3733;47.994;8.820;2023-10-08T10:44:52;20.40;57.80
7384;DHT22;3733;47.994;8.820;2023-10-08T10:47:19;20.30;57.30
7384;DHT22;3733;47.994;8.820;2023-10-08T10:49:49;20.20;57.30
7384;DHT22;3733;47.994;8.820;2023-10-08T10:52:28;20.30;57.60
7384;DHT22;3733;47.994;8.820;2023-10-08T10:55:13;20.30;55.90
7384;DHT22;3733;47.994;8.820;2023-10-08T10:57:58;20.30;54.10
7384;DHT22;3733;47.994;8.820;2023-10-08T11:00:37;20.30;53.80
7384;DHT22;3733;47.994;8.820;2023-10-08T11:03:03;20.40;53.20
7384;DHT22;3733;47.994;8.820;2023-10-08T11:05:33;20.50;53.80
7384;DHT22;3733;47.994;8.820;2023-10-08T11:08:03;20.90;53.70
7384;DHT22;3733;47.994;8.820;2023-10-08T11:10:39;21.40;53.20
7384;DHT22;3733;47.994;8.820;2023-10-08T11:13:08;21.80;50.70
7384;DHT22;3733;47.994;8.820;2023-10-08T11:15:40;22.30;49.90
7384;DHT22;3733;47.994;8.820;2023-10-08T11:18:16;22.70;48.60
7384;DHT22;3733;47.994;8.820;2023-10-08T11:20:42;23.00;47.60
7384;DHT22;3733;47.994;8.820;2023-10-08T11:23:34;23.20;46.50
7384;DHT22;3733;47.994;8.820;2023-10-08T11:26:05;23.60;46.00
7384;DHT22;3733;47.994;8.820;2023-10-08T11:28:31;23.80;46.10
7384;DHT22;3733;47.994;8.820;2023-10-08T11:31:00;24.00;45.30
7384;DHT22;3733;47.994;8.820;2023-10-08T11:33:35;24.20;45.10
7384;DHT22;3733;47.994;8.820;2023-10-08T11:36:03;24.30;45.20
7384;DHT22;3733;47.994;8.820;2023-10-08T11:38:41;24.70;44.70
7384;DHT22;3733;47.994;8.820;2023-10-08T11:41:11;25.10;43.10
7384;DHT22;3733;47.994;8.820;2023-10-08T11:43:49;25.70;41.10
7384;DHT22;3733;47.994;8.820;2023-10-08T11:46:28;26.20;39.80
7384;DHT22;3733;47.994;8.820;2023-10-08T11:49:06;26.70;39.80
7384;DHT22;3733;47.994;8.820;2023-10-08T11:51:35;27.20;39.50
7384;DHT22;3733;47.994;8.820;2023-10-08T11:54:01;27.50;39.60
7384;DHT22;3733;47.994;8.820;2023-10-08T11:56:31;27.70;38.80
7384;DHT22;3733;47.994;8.820;2023-10-08T11:58:57;27.90;38.20
7384;DHT22;3733;47.994;8.820;2023-10-08T12:01:26;27.80;37.20
7384;DHT22;3733;47.994;8.820;2023-10-08T12:03:53;27.60;37.40
7384;DHT22;3733;47.994;8.820;2023-10-08T12:06:24;27.50;38.90
7384;DHT22;3733;47.994;8.820;2023-10-08T12:08:50;27.40;36.50
7384;DHT22;3733;47.994;8.820;2023-10-08T12:11:19;27.40;36.50
7384;DHT22;3733;47.994;8.820;2023-10-08T12:13:48;27.40;36.20
7384;DHT22;3733;47.994;8.820;2023-10-08T12:16:16;27.20;36.60
7384;DHT22;3733;47.994;8.820;2023-10-08T12:18:47;26.80;36.90
7384;DHT22;3733;47.994;8.820;2023-10-08T12:21:20;26.20;36.70
7384;DHT22;3733;47.994;8.820;2023-10-08T12:23:45;25.70;37.60
7384;DHT22;3733;47.994;8.820;2023-10-08T12:26:12;25.60;38.20
7384;DHT22;3733;47.994;8.820;2023-10-08T12:28:42;25.60;38.70
7384;DHT22;3733;47.994;8.820;2023-10-08T12:31:13;25.60;36.70
7384;DHT22;3733;47.994;8.820;2023-10-08T12:33:41;25.40;37.00
7384;DHT22;3733;47.994;8.820;2023-10-08T12:36:06;25.20;37.10
7384;DHT22;3733;47.994;8.820;2023-10-08T12:38:40;25.10;37.00
7384;DHT22;3733;47.994;8.820;2023-10-08T12:41:07;25.20;36.20
7384;DHT22;3733;47.994;8.820;2023-10-08T12:43:43;25.40;35.10
7384;DHT22;3733;47.994;8.820;2023-10-08T12:46:13;25.40;35.00
7384;DHT22;3733;47.994;8.820;2023-10-08T12:48:45;25.20;34.90
7384;DHT22;3733;47.994;8.820;2023-10-08T12:51:16;25.00;35.50
7384;DHT22;3733;47.994;8.820;2023-10-08T12:53:43;24.80;35.00
7384;DHT22;3733;47.994;8.820;2023-10-08T12:56:16;24.50;35.60
7384;DHT22;3733;47.994;8.820;2023-10-08T12:58:46;24.40;37.30
7384;DHT22;3733;47.994;8.820;2023-10-08T13:01:14;24.30;37.90
7384;DHT22;3733;47.994;8.820;2023-10-08T13:03:43;24.20;37.50
7384;DHT22;3733;47.994;8.820;2023-10-08T13:06:14;24.30;39.10
7384;DHT22;3733;47.994;8.820;2023-10-08T13:08:50;24.20;39.70
7384;DHT22;3733;47.994;8.820;2023-10-08T13:11:18;24.10;38.80
7384;DHT22;3733;47.994;8.820;2023-10-08T13:13:51;24.10;36.80
7384;DHT22;3733;47.994;8.820;2023-10-08T13:16:18;24.10;37.30
7384;DHT22;3733;47.994;8.820;2023-10-08T13:18:43;24.00;38.00
7384;DHT22;3733;47.994;8.820;2023-10-08T13:21:10;23.90;37.40
7384;DHT22;3733;47.994;8.820;2023-10-08T13:23:36;23.80;36.50
7384;DHT22;3733;47.994;8.820;2023-10-08T13:26:02;23.80;36.80
7384;DHT22;3733;47.994;8.820;2023-10-08T13:28:33;23.60;36.50
7384;DHT22;3733;47.994;8.820;2023-10-08T13:31:00;23.50;36.60
7384;DHT22;3733;47.994;8.820;2023-10-08T13:33:26;23.40;36.40
7384;DHT22;3733;47.994;8.820;2023-10-08T13:35:52;23.30;37.40
7384;DHT22;3733;47.994;8.820;2023-10-08T13:38:18;23.30;37.90
7384;DHT22;3733;47.994;8.820;2023-10-08T13:40:51;23.20;37.80
7384;DHT22;3733;47.994;8.820;2023-10-08T13:46:14;23.40;37.90
7384;DHT22;3733;47.994;8.820;2023-10-08T13:48:46;23.80;38.50
7384;DHT22;3733;47.994;8.820;2023-10-08T13:51:15;24.20;38.00
7384;DHT22;3733;47.994;8.820;2023-10-08T13:53:49;24.60;38.70
7384;DHT22;3733;47.994;8.820;2023-10-08T13:56:18;25.00;41.40
7384;DHT22;3733;47.994;8.820;2023-10-08T13:58:46;25.30;43.40
7384;DHT22;3733;47.994;8.820;2023-10-08T14:01:15;25.60;43.40
7384;DHT22;3733;47.994;8.820;2023-10-08T14:03:53;25.80;42.40
7384;DHT22;3733;47.994;8.820;2023-10-08T14:06:22;26.00;44.40
7384;DHT22;3733;47.994;8.820;2023-10-08T14:08:48;26.10;42.20
7384;DHT22;3733;47.994;8.820;2023-10-08T14:11:22;26.20;43.30
7384;DHT22;3733;47.994;8.820;2023-10-08T14:13:56;26.20;38.40
7384;DHT22;3733;47.994;8.820;2023-10-08T14:16:21;26.30;41.60
7384;DHT22;3733;47.994;8.820;2023-10-08T14:18:54;26.50;44.80
7384;DHT22;3733;47.994;8.820;2023-10-08T14:21:21;26.60;46.10
7384;DHT22;3733;47.994;8.820;2023-10-08T14:23:50;26.60;46.30
7384;DHT22;3733;47.994;8.820;2023-10-08T14:26:22;26.70;46.60
7384;DHT22;3733;47.994;8.820;2023-10-08T14:28:48;26.70;46.80
7384;DHT22;3733;47.994;8.820;2023-10-08T14:31:24;26.60;47.10
7384;DHT22;3733;47.994;8.820;2023-10-08T14:33:52;26.30;47.30
7384;DHT22;3733;47.994;8.820;2023-10-08T14:36:24;26.00;48.10
7384;DHT22;3733;47.994;8.820;2023-10-08T14:39:09;25.70;48.80
7384;DHT22;3733;47.994;8.820;2023-10-08T14:41:54;25.50;49.30
7384;DHT22;3733;47.994;8.820;2023-10-08T14:44:43;25.40;49.30
7384;DHT22;3733;47.994;8.820;2023-10-08T14:47:08;25.20;50.00
7384;DHT22;3733;47.994;8.820;2023-10-08T14:49:34;25.20;50.30
7384;DHT22;3733;47.994;8.820;2023-10-08T14:52:00;25.40;50.40
7384;DHT22;3733;47.994;8.820;2023-10-08T14:54:29;25.40;50.10
7384;DHT22;3733;47.994;8.820;2023-10-08T14:56:56;25.40;50.00
7384;DHT22;3733;47.994;8.820;2023-10-08T14:59:23;25.30;50.20
7384;DHT22;3733;47.994;8.820;2023-10-08T15:01:49;25.20;50.50
7384;DHT22;3733;47.994;8.820;2023-10-08T15:04:15;25.30;50.20
7384;DHT22;3733;47.994;8.820;2023-10-08T15:06:42;25.50;49.80
7384;DHT22;3733;47.994;8.820;2023-10-08T15:09:09;25.70;49.40
7384;DHT22;3733;47.994;8.820;2023-10-08T15:11:35;25.90;49.00
7384;DHT22;3733;47.994;8.820;2023-10-08T15:14:02;26.10;48.70
7384;DHT22;3733;47.994;8.820;2023-10-08T15:16:36;26.60;48.30
7384;DHT22;3733;47.994;8.820;2023-10-08T15:19:01;27.20;47.50
7384;DHT22;3733;47.994;8.820;2023-10-08T15:21:29;27.70;46.50
7384;DHT22;3733;47.994;8.820;2023-10-08T15:23:59;27.30;46.20
7384;DHT22;3733;47.994;8.820;2023-10-08T15:26:31;26.60;47.30
7384;DHT22;3733;47.994;8.820;2023-10-08T15:28:57;25.80;48.80
7384;DHT22;3733;47.994;8.820;2023-10-08T15:31:22;25.00;50.10
7384;DHT22;3733;47.994;8.820;2023-10-08T15:33:49;24.40;51.00
7384;DHT22;3733;47.994;8.820;2023-10-08T15:36:15;23.90;52.00
7384;DHT22;3733;47.994;8.820;2023-10-08T15:38:40;23.50;53.00
7384;DHT22;3733;47.994;8.820;2023-10-08T15:41:06;23.10;53.80
7384;DHT22;3733;47.994;8.820;2023-10-08T15:43:31;22.80;54.60
7384;DHT22;3733;47.994;8.820;2023-10-08T15:45:57;22.50;55.30
7384;DHT22;3733;47.994;8.820;2023-10-08T15:48:22;22.30;55.90
7384;DHT22;3733;47.994;8.820;2023-10-08T15:50:49;22.10;56.50
7384;DHT22;3733;47.994;8.820;2023-10-08T15:53:15;21.90;57.10
7384;DHT22;3733;47.994;8.820;2023-10-08T15:55:40;21.70;57.70
7384;DHT22;3733;47.994;8.820;2023-10-08T15:58:07;21.50;58.70
7384;DHT22;3733;47.994;8.820;2023-10-08T16:00:33;21.30;59.80
7384;DHT22;3733;47.994;8.820;2023-10-08T16:02:58;21.10;60.60
7384;DHT22;3733;47.994;8.820;2023-10-08T16:05:24;20.80;61.30
7384;DHT22;3733;47.994;8.820;2023-10-08T16:07:50;20.60;62.00
7384;DHT22;3733;47.994;8.820;2023-10-08T16:10:15;20.50;62.70
7384;DHT22;3733;47.994;8.820;2023-10-08T16:12:41;20.30;63.00
7384;DHT22;3733;47.994;8.820;2023-10-08T16:15:07;20.10;63.30
7384;DHT22;3733;47.994;8.820;2023-10-08T16:17:33;20.00;63.50
7384;DHT22;3733;47.994;8.820;2023-10-08T16:19:59;19.90;63.90
7384;DHT22;3733;47.994;8.820;2023-10-08T16:22:27;19.70;64.30
7384;DHT22;3733;47.994;8.820;2023-10-08T16:24:53;19.70;64.80
7384;DHT22;3733;47.994;8.820;2023-10-08T16:27:19;19.70;65.20
7384;DHT22;3733;47.994;8.820;2023-10-08T16:29:44;19.70;65.50
7384;DHT22;3733;47.994;8.820;2023-10-08T16:32:10;19.60;66.20
7384;DHT22;3733;47.994;8.820;2023-10-08T16:34:37;19.50;67.50
7384;DHT22;3733;47.994;8.820;2023-10-08T16:37:03;19.30;68.60
7384;DHT22;3733;47.994;8.820;2023-10-08T16:39:29;19.20;69.90
7384;DHT22;3733;47.994;8.820;2023-10-08T16:41:56;19.00;71.60
7384;DHT22;3733;47.994;8.820;2023-10-08T16:44:22;18.80;73.90
7384;DHT22;3733;47.994;8.820;2023-10-08T16:46:48;18.70;76.40
7384;DHT22;3733;47.994;8.820;2023-10-08T16:49:14;18.60;78.00